sensor_id;sensor_type;location;lat;lon;timestamp;P1;durP1;ratioP1;P2;durP2;ratioP2
39322;SDS011;25036;53.638;10.134;2023-07-22T00:00:30;5.05;;;3.88;;
39322;SDS011;25036;53.638;10.134;2023-07-22T00:01:31;4.82;;;4.10;;
39322;SDS011;25036;53.638;10.134;2023-07-22T00:02:31;4.00;;;3.60;;
39322;SDS011;25036;53.638;10.134;2023-07-22T00:03:31;5.60;;;4.20;;
39322;SDS011;25036;53.638;10.134;2023-07-22T00:04:32;4.50;;;3.88;;
39322;SDS011;25036;53.638;10.134;2023-07-22T00:05:32;4.43;;;4.00;;
39322;SDS011;25036;53.638;10.134;2023-07-22T00:06:32;4.40;;;3.40;;
39322;SDS011;25036;53.638;10.134;2023-07-22T00:07:33;4.23;;;3.57;;
39322;SDS011;25036;53.638;10.134;2023-07-22T00:08:34;5.28;;;3.47;;
39322;SDS011;25036;53.638;10.134;2023-07-22T00:09:34;4.65;;;3.90;;
39322;SDS011;25036;53.638;10.134;2023-07-22T00:10:34;5.07;;;3.55;;
39322;SDS011;25036;53.638;10.134;2023-07-22T00:11:34;4.10;;;3.13;;
39322;SDS011;25036;53.638;10.134;2023-07-22T00:12:35;5.13;;;3.97;;
39322;SDS011;25036;53.638;10.134;2023-07-22T00:13:35;4.65;;;3.70;;
39322;SDS011;25036;53.638;10.134;2023-07-22T00:14:39;7.47;;;4.10;;
39322;SDS011;25036;53.638;10.134;2023-07-22T00:15:39;4.55;;;3.83;;
39322;SDS011;25036;53.638;10.134;2023-07-22T00:16:39;5.27;;;4.30;;
39322;SDS011;25036;53.638;10.134;2023-07-22T00:17:40;5.23;;;4.30;;
39322;SDS011;25036;53.638;10.134;2023-07-22T00:18:41;5.35;;;4.63;;
39322;SDS011;25036;53.638;10.134;2023-07-22T00:19:41;4.75;;;3.88;;
39322;SDS011;25036;53.638;10.134;2023-07-22T00:20:41;4.67;;;3.83;;
39322;SDS011;25036;53.638;10.134;2023-07-22T00:21:41;5.50;;;4.10;;
39322;SDS011;25036;53.638;10.134;2023-07-22T00:22:42;5.40;;;3.97;;
39322;SDS011;25036;53.638;10.134;2023-07-22T00:23:42;5.38;;;4.20;;
39322;SDS011;25036;53.638;10.134;2023-07-22T00:24:42;9.85;;;4.28;;
39322;SDS011;25036;53.638;10.134;2023-07-22T00:25:43;6.37;;;4.57;;
39322;SDS011;25036;53.638;10.134;2023-07-22T00:26:43;6.27;;;4.27;;
39322;SDS011;25036;53.638;10.134;2023-07-22T00:27:43;6.10;;;4.30;;
39322;SDS011;25036;53.638;10.134;2023-07-22T00:28:43;5.13;;;4.13;;
39322;SDS011;25036;53.638;10.134;2023-07-22T00:29:43;4.93;;;4.37;;
39322;SDS011;25036;53.638;10.134;2023-07-22T00:30:43;5.67;;;4.70;;
39322;SDS011;25036;53.638;10.134;2023-07-22T00:31:44;4.90;;;4.40;;
39322;SDS011;25036;53.638;10.134;2023-07-22T00:32:44;5.93;;;4.30;;
39322;SDS011;25036;53.638;10.134;2023-07-22T00:33:44;4.93;;;4.07;;
39322;SDS011;25036;53.638;10.134;2023-07-22T00:34:44;10.40;;;4.50;;
39322;SDS011;25036;53.638;10.134;2023-07-22T00:35:47;5.37;;;4.57;;
39322;SDS011;25036;53.638;10.134;2023-07-22T00:36:48;10.48;;;4.88;;
39322;SDS011;25036;53.638;10.134;2023-07-22T00:37:48;4.30;;;3.90;;
39322;SDS011;25036;53.638;10.134;2023-07-22T00:38:48;6.07;;;4.80;;
39322;SDS011;25036;53.638;10.134;2023-07-22T00:39:48;6.37;;;4.20;;
39322;SDS011;25036;53.638;10.134;2023-07-22T00:40:48;5.13;;;4.40;;
39322;SDS011;25036;53.638;10.134;2023-07-22T00:41:48;5.27;;;4.53;;
39322;SDS011;25036;53.638;10.134;2023-07-22T00:42:49;4.93;;;3.93;;
39322;SDS011;25036;53.638;10.134;2023-07-22T00:43:49;7.70;;;4.35;;
39322;SDS011;25036;53.638;10.134;2023-07-22T00:44:49;6.05;;;4.25;;
39322;SDS011;25036;53.638;10.134;2023-07-22T00:45:49;6.80;;;4.45;;
39322;SDS011;25036;53.638;10.134;2023-07-22T00:46:49;5.53;;;4.50;;
39322;SDS011;25036;53.638;10.134;2023-07-22T00:47:53;6.38;;;4.65;;
39322;SDS011;25036;53.638;10.134;2023-07-22T00:48:53;6.70;;;4.45;;
39322;SDS011;25036;53.638;10.134;2023-07-22T00:49:53;5.15;;;4.43;;
39322;SDS011;25036;53.638;10.134;2023-07-22T00:50:54;5.00;;;4.50;;
39322;SDS011;25036;53.638;10.134;2023-07-22T00:51:54;6.73;;;4.87;;
39322;SDS011;25036;53.638;10.134;2023-07-22T00:52:56;10.00;;;4.55;;
39322;SDS011;25036;53.638;10.134;2023-07-22T00:53:56;5.80;;;4.50;;
39322;SDS011;25036;53.638;10.134;2023-07-22T00:54:56;5.93;;;4.33;;
39322;SDS011;25036;53.638;10.134;2023-07-22T00:55:56;6.50;;;4.67;;
39322;SDS011;25036;53.638;10.134;2023-07-22T00:56:57;6.88;;;4.40;;
39322;SDS011;25036;53.638;10.134;2023-07-22T00:57:57;9.45;;;5.22;;
39322;SDS011;25036;53.638;10.134;2023-07-22T00:58:57;7.37;;;5.13;;
39322;SDS011;25036;53.638;10.134;2023-07-22T00:59:57;6.87;;;4.60;;
39322;SDS011;25036;53.638;10.134;2023-07-22T01:00:57;5.70;;;4.55;;
39322;SDS011;25036;53.638;10.134;2023-07-22T01:01:57;5.93;;;4.80;;
39322;SDS011;25036;53.638;10.134;2023-07-22T01:02:58;7.43;;;4.40;;
39322;SDS011;25036;53.638;10.134;2023-07-22T01:03:58;7.35;;;4.97;;
39322;SDS011;25036;53.638;10.134;2023-07-22T01:04:59;5.15;;;4.20;;
39322;SDS011;25036;53.638;10.134;2023-07-22T01:06:00;6.28;;;4.65;;
39322;SDS011;25036;53.638;10.134;2023-07-22T01:07:01;6.70;;;5.15;;
39322;SDS011;25036;53.638;10.134;2023-07-22T01:08:06;5.90;;;4.85;;
39322;SDS011;25036;53.638;10.134;2023-07-22T01:09:06;6.35;;;4.38;;
39322;SDS011;25036;53.638;10.134;2023-07-22T01:10:07;6.13;;;4.85;;
39322;SDS011;25036;53.638;10.134;2023-07-22T01:11:08;6.10;;;4.57;;
39322;SDS011;25036;53.638;10.134;2023-07-22T01:12:09;5.60;;;4.60;;
39322;SDS011;25036;53.638;10.134;2023-07-22T01:13:09;5.57;;;4.32;;
39322;SDS011;25036;53.638;10.134;2023-07-22T01:14:09;6.30;;;4.70;;
39322;SDS011;25036;53.638;10.134;2023-07-22T01:15:09;7.30;;;4.70;;
39322;SDS011;25036;53.638;10.134;2023-07-22T01:16:10;5.57;;;4.78;;
39322;SDS011;25036;53.638;10.134;2023-07-22T01:17:10;7.87;;;4.90;;
39322;SDS011;25036;53.638;10.134;2023-07-22T01:18:11;6.18;;;5.00;;
39322;SDS011;25036;53.638;10.134;2023-07-22T01:19:11;5.40;;;4.90;;
39322;SDS011;25036;53.638;10.134;2023-07-22T01:20:13;6.82;;;5.50;;
39322;SDS011;25036;53.638;10.134;2023-07-22T01:21:15;5.43;;;4.70;;
39322;SDS011;25036;53.638;10.134;2023-07-22T01:22:15;8.13;;;5.40;;
39322;SDS011;25036;53.638;10.134;2023-07-22T01:23:16;7.63;;;5.15;;
39322;SDS011;25036;53.638;10.134;2023-07-22T01:24:16;7.28;;;4.93;;
39322;SDS011;25036;53.638;10.134;2023-07-22T01:25:17;7.07;;;5.05;;
39322;SDS011;25036;53.638;10.134;2023-07-22T01:26:17;6.57;;;5.20;;
39322;SDS011;25036;53.638;10.134;2023-07-22T01:27:17;5.97;;;4.82;;
39322;SDS011;25036;53.638;10.134;2023-07-22T01:28:17;7.17;;;5.27;;
39322;SDS011;25036;53.638;10.134;2023-07-22T01:29:17;7.13;;;5.00;;
39322;SDS011;25036;53.638;10.134;2023-07-22T01:30:18;8.20;;;5.65;;
39322;SDS011;25036;53.638;10.134;2023-07-22T01:31:19;5.32;;;4.40;;
39322;SDS011;25036;53.638;10.134;2023-07-22T01:32:19;6.10;;;5.03;;
39322;SDS011;25036;53.638;10.134;2023-07-22T01:33:20;7.35;;;5.07;;
39322;SDS011;25036;53.638;10.134;2023-07-22T01:34:20;6.43;;;4.90;;
39322;SDS011;25036;53.638;10.134;2023-07-22T01:35:21;7.60;;;5.40;;
39322;SDS011;25036;53.638;10.134;2023-07-22T01:36:21;6.20;;;5.13;;
39322;SDS011;25036;53.638;10.134;2023-07-22T01:37:21;5.47;;;4.70;;
39322;SDS011;25036;53.638;10.134;2023-07-22T01:38:21;8.83;;;5.37;;
39322;SDS011;25036;53.638;10.134;2023-07-22T01:39:21;8.88;;;5.28;;
39322;SDS011;25036;53.638;10.134;2023-07-22T01:40:23;7.07;;;5.33;;
39322;SDS011;25036;53.638;10.134;2023-07-22T01:41:23;7.38;;;5.28;;
39322;SDS011;25036;53.638;10.134;2023-07-22T01:42:23;5.70;;;4.78;;
39322;SDS011;25036;53.638;10.134;2023-07-22T01:43:23;7.03;;;5.40;;
39322;SDS011;25036;53.638;10.134;2023-07-22T01:44:24;7.88;;;5.65;;
39322;SDS011;25036;53.638;10.134;2023-07-22T01:45:24;8.40;;;5.63;;
39322;SDS011;25036;53.638;10.134;2023-07-22T01:46:25;6.30;;;5.30;;
39322;SDS011;25036;53.638;10.134;2023-07-22T01:47:25;8.30;;;6.00;;
39322;SDS011;25036;53.638;10.134;2023-07-22T01:48:26;8.32;;;5.07;;
39322;SDS011;25036;53.638;10.134;2023-07-22T01:49:26;7.40;;;5.00;;
39322;SDS011;25036;53.638;10.134;2023-07-22T01:50:26;7.40;;;5.60;;
39322;SDS011;25036;53.638;10.134;2023-07-22T01:51:27;7.43;;;5.00;;
39322;SDS011;25036;53.638;10.134;2023-07-22T01:52:28;7.28;;;5.13;;
39322;SDS011;25036;53.638;10.134;2023-07-22T01:53:28;6.20;;;5.53;;
39322;SDS011;25036;53.638;10.134;2023-07-22T01:54:28;6.85;;;5.30;;
39322;SDS011;25036;53.638;10.134;2023-07-22T01:55:28;7.60;;;5.67;;
39322;SDS011;25036;53.638;10.134;2023-07-22T01:56:28;6.30;;;5.10;;
39322;SDS011;25036;53.638;10.134;2023-07-22T01:57:28;5.93;;;5.07;;
39322;SDS011;25036;53.638;10.134;2023-07-22T01:58:28;6.70;;;5.30;;
39322;SDS011;25036;53.638;10.134;2023-07-22T01:59:29;6.38;;;5.38;;
39322;SDS011;25036;53.638;10.134;2023-07-22T02:00:29;9.67;;;5.27;;
39322;SDS011;25036;53.638;10.134;2023-07-22T02:01:29;8.77;;;4.80;;
39322;SDS011;25036;53.638;10.134;2023-07-22T02:02:29;6.38;;;4.88;;
39322;SDS011;25036;53.638;10.134;2023-07-22T02:03:30;5.65;;;5.10;;
39322;SDS011;25036;53.638;10.134;2023-07-22T02:04:31;5.90;;;4.70;;
39322;SDS011;25036;53.638;10.134;2023-07-22T02:05:31;7.60;;;5.43;;
39322;SDS011;25036;53.638;10.134;2023-07-22T02:06:32;9.15;;;5.60;;
39322;SDS011;25036;53.638;10.134;2023-07-22T02:07:32;6.63;;;4.53;;
39322;SDS011;25036;53.638;10.134;2023-07-22T02:08:32;9.02;;;5.32;;
39322;SDS011;25036;53.638;10.134;2023-07-22T02:09:33;6.80;;;5.10;;
39322;SDS011;25036;53.638;10.134;2023-07-22T02:10:33;5.87;;;4.90;;
39322;SDS011;25036;53.638;10.134;2023-07-22T02:11:36;6.73;;;5.43;;
39322;SDS011;25036;53.638;10.134;2023-07-22T02:12:36;8.88;;;5.50;;
39322;SDS011;25036;53.638;10.134;2023-07-22T02:13:37;7.20;;;5.50;;
39322;SDS011;25036;53.638;10.134;2023-07-22T02:14:37;7.25;;;5.53;;
39322;SDS011;25036;53.638;10.134;2023-07-22T02:15:37;8.80;;;5.38;;
39322;SDS011;25036;53.638;10.134;2023-07-22T02:16:37;6.40;;;4.77;;
39322;SDS011;25036;53.638;10.134;2023-07-22T02:17:37;7.50;;;4.87;;
39322;SDS011;25036;53.638;10.134;2023-07-22T02:18:37;8.33;;;5.07;;
39322;SDS011;25036;53.638;10.134;2023-07-22T02:19:38;8.10;;;5.00;;
39322;SDS011;25036;53.638;10.134;2023-07-22T02:20:38;6.53;;;5.07;;
39322;SDS011;25036;53.638;10.134;2023-07-22T02:21:38;7.65;;;5.10;;
39322;SDS011;25036;53.638;10.134;2023-07-22T02:22:38;8.20;;;5.23;;
39322;SDS011;25036;53.638;10.134;2023-07-22T02:23:39;9.20;;;6.07;;
39322;SDS011;25036;53.638;10.134;2023-07-22T02:24:39;10.10;;;6.20;;
39322;SDS011;25036;53.638;10.134;2023-07-22T02:25:39;7.20;;;5.40;;
39322;SDS011;25036;53.638;10.134;2023-07-22T02:26:39;6.45;;;4.85;;
39322;SDS011;25036;53.638;10.134;2023-07-22T02:27:39;6.43;;;5.07;;
39322;SDS011;25036;53.638;10.134;2023-07-22T02:28:40;9.00;;;5.38;;
39322;SDS011;25036;53.638;10.134;2023-07-22T02:29:40;7.17;;;5.40;;
39322;SDS011;25036;53.638;10.134;2023-07-22T02:30:41;7.97;;;5.17;;
39322;SDS011;25036;53.638;10.134;2023-07-22T02:31:41;8.27;;;5.15;;
39322;SDS011;25036;53.638;10.134;2023-07-22T02:32:41;7.10;;;5.23;;
39322;SDS011;25036;53.638;10.134;2023-07-22T02:33:41;6.63;;;5.22;;
39322;SDS011;25036;53.638;10.134;2023-07-22T02:34:41;8.05;;;5.13;;
39322;SDS011;25036;53.638;10.134;2023-07-22T02:35:42;6.93;;;5.10;;
39322;SDS011;25036;53.638;10.134;2023-07-22T02:36:42;6.55;;;5.03;;
39322;SDS011;25036;53.638;10.134;2023-07-22T02:37:42;7.10;;;5.03;;
39322;SDS011;25036;53.638;10.134;2023-07-22T02:38:42;7.33;;;5.40;;
39322;SDS011;25036;53.638;10.134;2023-07-22T02:39:42;7.15;;;5.35;;
39322;SDS011;25036;53.638;10.134;2023-07-22T02:40:43;11.27;;;5.17;;
39322;SDS011;25036;53.638;10.134;2023-07-22T02:41:43;6.07;;;5.03;;
39322;SDS011;25036;53.638;10.134;2023-07-22T02:42:43;6.45;;;5.07;;
39322;SDS011;25036;53.638;10.134;2023-07-22T02:43:43;7.67;;;4.53;;
39322;SDS011;25036;53.638;10.134;2023-07-22T02:44:43;6.20;;;4.80;;
39322;SDS011;25036;53.638;10.134;2023-07-22T02:45:43;7.33;;;4.93;;
39322;SDS011;25036;53.638;10.134;2023-07-22T02:46:44;6.50;;;4.50;;
39322;SDS011;25036;53.638;10.134;2023-07-22T02:47:44;8.13;;;4.80;;
39322;SDS011;25036;53.638;10.134;2023-07-22T02:48:44;6.27;;;4.90;;
39322;SDS011;25036;53.638;10.134;2023-07-22T02:49:44;6.87;;;5.37;;
39322;SDS011;25036;53.638;10.134;2023-07-22T02:50:45;7.50;;;5.20;;
39322;SDS011;25036;53.638;10.134;2023-07-22T02:51:45;7.05;;;4.63;;
39322;SDS011;25036;53.638;10.134;2023-07-22T02:52:45;6.43;;;5.20;;
39322;SDS011;25036;53.638;10.134;2023-07-22T02:53:46;7.33;;;5.20;;
39322;SDS011;25036;53.638;10.134;2023-07-22T02:55:03;8.52;;;4.63;;
39322;SDS011;25036;53.638;10.134;2023-07-22T02:56:04;7.03;;;4.88;;
39322;SDS011;25036;53.638;10.134;2023-07-22T02:57:04;5.15;;;4.63;;
39322;SDS011;25036;53.638;10.134;2023-07-22T02:58:05;7.82;;;4.95;;
39322;SDS011;25036;53.638;10.134;2023-07-22T02:59:05;7.63;;;5.25;;
39322;SDS011;25036;53.638;10.134;2023-07-22T03:00:06;8.30;;;4.67;;
39322;SDS011;25036;53.638;10.134;2023-07-22T03:01:12;6.78;;;4.25;;
39322;SDS011;25036;53.638;10.134;2023-07-22T03:02:12;8.77;;;5.00;;
39322;SDS011;25036;53.638;10.134;2023-07-22T03:03:14;7.15;;;4.80;;
39322;SDS011;25036;53.638;10.134;2023-07-22T03:04:14;9.30;;;5.17;;
39322;SDS011;25036;53.638;10.134;2023-07-22T03:05:14;6.57;;;5.03;;
39322;SDS011;25036;53.638;10.134;2023-07-22T03:06:14;7.10;;;5.10;;
39322;SDS011;25036;53.638;10.134;2023-07-22T03:07:14;7.47;;;5.30;;
39322;SDS011;25036;53.638;10.134;2023-07-22T03:08:15;6.53;;;4.63;;
39322;SDS011;25036;53.638;10.134;2023-07-22T03:09:15;7.28;;;4.75;;
39322;SDS011;25036;53.638;10.134;2023-07-22T03:10:15;7.23;;;5.23;;
39322;SDS011;25036;53.638;10.134;2023-07-22T03:11:15;8.17;;;5.07;;
39322;SDS011;25036;53.638;10.134;2023-07-22T03:12:15;6.97;;;4.80;;
39322;SDS011;25036;53.638;10.134;2023-07-22T03:13:16;7.40;;;5.20;;
39322;SDS011;25036;53.638;10.134;2023-07-22T03:14:16;7.63;;;4.90;;
39322;SDS011;25036;53.638;10.134;2023-07-22T03:15:17;7.93;;;4.78;;
39322;SDS011;25036;53.638;10.134;2023-07-22T03:16:18;5.75;;;4.47;;
39322;SDS011;25036;53.638;10.134;2023-07-22T03:17:19;6.85;;;5.07;;
39322;SDS011;25036;53.638;10.134;2023-07-22T03:18:19;7.90;;;4.63;;
39322;SDS011;25036;53.638;10.134;2023-07-22T03:19:19;9.55;;;5.70;;
39322;SDS011;25036;53.638;10.134;2023-07-22T03:20:21;5.57;;;4.47;;
39322;SDS011;25036;53.638;10.134;2023-07-22T03:21:22;8.35;;;4.80;;
39322;SDS011;25036;53.638;10.134;2023-07-22T03:22:23;9.02;;;5.38;;
39322;SDS011;25036;53.638;10.134;2023-07-22T03:23:24;7.68;;;5.00;;
39322;SDS011;25036;53.638;10.134;2023-07-22T03:24:24;8.07;;;5.13;;
39322;SDS011;25036;53.638;10.134;2023-07-22T03:25:25;8.45;;;4.85;;
39322;SDS011;25036;53.638;10.134;2023-07-22T03:26:26;7.97;;;5.25;;
39322;SDS011;25036;53.638;10.134;2023-07-22T03:27:26;8.07;;;5.23;;
39322;SDS011;25036;53.638;10.134;2023-07-22T03:28:27;7.43;;;5.43;;
39322;SDS011;25036;53.638;10.134;2023-07-22T03:29:27;8.20;;;5.13;;
39322;SDS011;25036;53.638;10.134;2023-07-22T03:30:27;7.53;;;5.35;;
39322;SDS011;25036;53.638;10.134;2023-07-22T03:31:28;8.60;;;5.28;;
39322;SDS011;25036;53.638;10.134;2023-07-22T03:32:28;9.00;;;5.20;;
39322;SDS011;25036;53.638;10.134;2023-07-22T03:33:28;6.25;;;4.80;;
39322;SDS011;25036;53.638;10.134;2023-07-22T03:34:29;7.90;;;4.95;;
39322;SDS011;25036;53.638;10.134;2023-07-22T03:35:29;6.32;;;4.85;;
39322;SDS011;25036;53.638;10.134;2023-07-22T03:36:30;5.18;;;4.35;;
39322;SDS011;25036;53.638;10.134;2023-07-22T03:37:33;8.32;;;5.22;;
39322;SDS011;25036;53.638;10.134;2023-07-22T03:38:36;11.50;;;5.38;;
39322;SDS011;25036;53.638;10.134;2023-07-22T03:39:36;7.53;;;5.00;;
39322;SDS011;25036;53.638;10.134;2023-07-22T03:40:36;7.70;;;4.50;;
39322;SDS011;25036;53.638;10.134;2023-07-22T03:41:37;7.75;;;5.60;;
39322;SDS011;25036;53.638;10.134;2023-07-22T03:42:37;7.83;;;4.73;;
39322;SDS011;25036;53.638;10.134;2023-07-22T03:43:38;6.85;;;5.05;;
39322;SDS011;25036;53.638;10.134;2023-07-22T03:44:38;6.93;;;4.73;;
39322;SDS011;25036;53.638;10.134;2023-07-22T03:45:40;8.05;;;5.22;;
39322;SDS011;25036;53.638;10.134;2023-07-22T03:46:40;10.32;;;5.55;;
39322;SDS011;25036;53.638;10.134;2023-07-22T03:47:40;7.77;;;4.83;;
39322;SDS011;25036;53.638;10.134;2023-07-22T03:48:40;6.60;;;4.87;;
39322;SDS011;25036;53.638;10.134;2023-07-22T03:49:40;5.87;;;4.67;;
39322;SDS011;25036;53.638;10.134;2023-07-22T03:50:41;7.30;;;4.60;;
39322;SDS011;25036;53.638;10.134;2023-07-22T03:51:41;6.73;;;4.73;;
39322;SDS011;25036;53.638;10.134;2023-07-22T03:52:41;7.43;;;4.63;;
39322;SDS011;25036;53.638;10.134;2023-07-22T03:53:41;8.90;;;5.40;;
39322;SDS011;25036;53.638;10.134;2023-07-22T03:54:41;7.17;;;5.30;;
39322;SDS011;25036;53.638;10.134;2023-07-22T03:55:41;6.30;;;5.10;;
39322;SDS011;25036;53.638;10.134;2023-07-22T03:56:41;6.97;;;4.93;;
39322;SDS011;25036;53.638;10.134;2023-07-22T03:57:42;7.90;;;5.30;;
39322;SDS011;25036;53.638;10.134;2023-07-22T03:58:42;9.63;;;5.07;;
39322;SDS011;25036;53.638;10.134;2023-07-22T03:59:42;7.53;;;4.97;;
39322;SDS011;25036;53.638;10.134;2023-07-22T04:00:42;8.10;;;5.00;;
39322;SDS011;25036;53.638;10.134;2023-07-22T04:01:42;8.83;;;4.70;;
39322;SDS011;25036;53.638;10.134;2023-07-22T04:02:43;10.57;;;5.00;;
39322;SDS011;25036;53.638;10.134;2023-07-22T04:03:43;6.73;;;4.60;;
39322;SDS011;25036;53.638;10.134;2023-07-22T04:04:43;9.05;;;5.40;;
39322;SDS011;25036;53.638;10.134;2023-07-22T04:05:43;6.50;;;4.97;;
39322;SDS011;25036;53.638;10.134;2023-07-22T04:06:44;7.07;;;4.70;;
39322;SDS011;25036;53.638;10.134;2023-07-22T04:07:44;9.37;;;5.23;;
39322;SDS011;25036;53.638;10.134;2023-07-22T04:08:44;7.40;;;4.78;;
39322;SDS011;25036;53.638;10.134;2023-07-22T04:09:45;7.47;;;5.10;;
39322;SDS011;25036;53.638;10.134;2023-07-22T04:10:52;9.40;;;5.37;;
39322;SDS011;25036;53.638;10.134;2023-07-22T04:11:52;7.35;;;5.50;;
39322;SDS011;25036;53.638;10.134;2023-07-22T04:12:52;6.17;;;5.17;;
39322;SDS011;25036;53.638;10.134;2023-07-22T04:13:53;8.93;;;5.07;;
39322;SDS011;25036;53.638;10.134;2023-07-22T04:14:53;7.03;;;4.93;;
39322;SDS011;25036;53.638;10.134;2023-07-22T04:15:53;10.33;;;5.30;;
39322;SDS011;25036;53.638;10.134;2023-07-22T04:16:53;8.88;;;5.70;;
39322;SDS011;25036;53.638;10.134;2023-07-22T04:17:53;9.47;;;4.93;;
39322;SDS011;25036;53.638;10.134;2023-07-22T04:18:53;8.73;;;4.73;;
39322;SDS011;25036;53.638;10.134;2023-07-22T04:19:54;7.23;;;5.03;;
39322;SDS011;25036;53.638;10.134;2023-07-22T04:20:57;9.55;;;5.47;;
39322;SDS011;25036;53.638;10.134;2023-07-22T04:21:57;8.30;;;4.97;;
39322;SDS011;25036;53.638;10.134;2023-07-22T04:22:57;8.55;;;4.90;;
39322;SDS011;25036;53.638;10.134;2023-07-22T04:23:57;5.87;;;5.20;;
39322;SDS011;25036;53.638;10.134;2023-07-22T04:24:58;6.37;;;5.17;;
39322;SDS011;25036;53.638;10.134;2023-07-22T04:25:58;7.68;;;4.13;;
39322;SDS011;25036;53.638;10.134;2023-07-22T04:26:58;6.40;;;4.93;;
39322;SDS011;25036;53.638;10.134;2023-07-22T04:27:59;8.43;;;4.60;;
39322;SDS011;25036;53.638;10.134;2023-07-22T04:28:59;7.38;;;4.97;;
39322;SDS011;25036;53.638;10.134;2023-07-22T04:29:59;5.90;;;4.82;;
39322;SDS011;25036;53.638;10.134;2023-07-22T04:30:59;7.72;;;4.82;;
39322;SDS011;25036;53.638;10.134;2023-07-22T04:32:00;7.90;;;5.28;;
39322;SDS011;25036;53.638;10.134;2023-07-22T04:33:00;7.63;;;4.63;;
39322;SDS011;25036;53.638;10.134;2023-07-22T04:34:00;7.87;;;4.57;;
39322;SDS011;25036;53.638;10.134;2023-07-22T04:35:01;7.43;;;4.80;;
39322;SDS011;25036;53.638;10.134;2023-07-22T04:36:01;6.60;;;5.30;;
39322;SDS011;25036;53.638;10.134;2023-07-22T04:37:01;8.20;;;5.13;;
39322;SDS011;25036;53.638;10.134;2023-07-22T04:38:01;8.43;;;4.95;;
39322;SDS011;25036;53.638;10.134;2023-07-22T04:39:03;7.50;;;4.75;;
39322;SDS011;25036;53.638;10.134;2023-07-22T04:40:07;6.97;;;4.85;;
39322;SDS011;25036;53.638;10.134;2023-07-22T04:41:09;8.70;;;5.05;;
39322;SDS011;25036;53.638;10.134;2023-07-22T04:42:09;7.50;;;4.95;;
39322;SDS011;25036;53.638;10.134;2023-07-22T04:43:10;7.37;;;4.97;;
39322;SDS011;25036;53.638;10.134;2023-07-22T04:44:10;5.10;;;4.60;;
39322;SDS011;25036;53.638;10.134;2023-07-22T04:45:10;7.43;;;4.70;;
39322;SDS011;25036;53.638;10.134;2023-07-22T04:46:11;7.30;;;4.10;;
39322;SDS011;25036;53.638;10.134;2023-07-22T04:47:11;6.07;;;4.60;;
39322;SDS011;25036;53.638;10.134;2023-07-22T04:48:11;5.22;;;4.20;;
39322;SDS011;25036;53.638;10.134;2023-07-22T04:49:11;5.40;;;4.40;;
39322;SDS011;25036;53.638;10.134;2023-07-22T04:50:12;8.68;;;5.00;;
39322;SDS011;25036;53.638;10.134;2023-07-22T04:51:12;5.63;;;4.25;;
39322;SDS011;25036;53.638;10.134;2023-07-22T04:52:12;6.17;;;4.83;;
39322;SDS011;25036;53.638;10.134;2023-07-22T04:53:12;7.97;;;4.80;;
39322;SDS011;25036;53.638;10.134;2023-07-22T04:54:13;6.60;;;4.45;;
39322;SDS011;25036;53.638;10.134;2023-07-22T04:55:14;6.65;;;4.45;;
39322;SDS011;25036;53.638;10.134;2023-07-22T04:56:14;5.60;;;4.40;;
39322;SDS011;25036;53.638;10.134;2023-07-22T04:57:15;8.77;;;4.93;;
39322;SDS011;25036;53.638;10.134;2023-07-22T04:58:16;7.05;;;3.72;;
39322;SDS011;25036;53.638;10.134;2023-07-22T04:59:17;6.47;;;4.53;;
39322;SDS011;25036;53.638;10.134;2023-07-22T05:00:18;4.65;;;3.80;;
39322;SDS011;25036;53.638;10.134;2023-07-22T05:01:19;6.78;;;4.68;;
39322;SDS011;25036;53.638;10.134;2023-07-22T05:02:19;6.63;;;4.13;;
39322;SDS011;25036;53.638;10.134;2023-07-22T05:03:19;7.15;;;4.63;;
39322;SDS011;25036;53.638;10.134;2023-07-22T05:04:19;6.87;;;3.97;;
39322;SDS011;25036;53.638;10.134;2023-07-22T05:05:19;5.50;;;4.07;;
39322;SDS011;25036;53.638;10.134;2023-07-22T05:06:19;6.40;;;4.30;;
39322;SDS011;25036;53.638;10.134;2023-07-22T05:07:20;5.80;;;4.60;;
39322;SDS011;25036;53.638;10.134;2023-07-22T05:08:21;6.38;;;4.47;;
39322;SDS011;25036;53.638;10.134;2023-07-22T05:09:21;6.47;;;4.10;;
39322;SDS011;25036;53.638;10.134;2023-07-22T05:10:21;7.03;;;4.60;;
39322;SDS011;25036;53.638;10.134;2023-07-22T05:11:21;6.55;;;4.30;;
39322;SDS011;25036;53.638;10.134;2023-07-22T05:12:23;6.10;;;4.43;;
39322;SDS011;25036;53.638;10.134;2023-07-22T05:13:23;5.90;;;3.80;;
39322;SDS011;25036;53.638;10.134;2023-07-22T05:14:24;8.90;;;4.63;;
39322;SDS011;25036;53.638;10.134;2023-07-22T05:15:24;7.97;;;4.77;;
39322;SDS011;25036;53.638;10.134;2023-07-22T05:16:25;7.43;;;4.30;;
39322;SDS011;25036;53.638;10.134;2023-07-22T05:17:25;6.13;;;3.90;;
39322;SDS011;25036;53.638;10.134;2023-07-22T05:18:25;6.47;;;3.88;;
39322;SDS011;25036;53.638;10.134;2023-07-22T05:19:26;5.90;;;4.37;;
39322;SDS011;25036;53.638;10.134;2023-07-22T05:20:26;4.93;;;3.93;;
39322;SDS011;25036;53.638;10.134;2023-07-22T05:21:26;9.15;;;4.80;;
39322;SDS011;25036;53.638;10.134;2023-07-22T05:22:26;6.67;;;4.40;;
39322;SDS011;25036;53.638;10.134;2023-07-22T05:23:26;5.97;;;4.60;;
39322;SDS011;25036;53.638;10.134;2023-07-22T05:24:27;6.95;;;4.30;;
39322;SDS011;25036;53.638;10.134;2023-07-22T05:25:27;7.43;;;3.97;;
39322;SDS011;25036;53.638;10.134;2023-07-22T05:26:27;9.03;;;4.97;;
39322;SDS011;25036;53.638;10.134;2023-07-22T05:27:27;6.20;;;3.93;;
39322;SDS011;25036;53.638;10.134;2023-07-22T05:28:27;5.77;;;4.20;;
39322;SDS011;25036;53.638;10.134;2023-07-22T05:29:27;4.17;;;3.60;;
39322;SDS011;25036;53.638;10.134;2023-07-22T05:30:27;6.90;;;4.50;;
39322;SDS011;25036;53.638;10.134;2023-07-22T05:31:28;5.77;;;4.20;;
39322;SDS011;25036;53.638;10.134;2023-07-22T05:32:28;6.73;;;4.20;;
39322;SDS011;25036;53.638;10.134;2023-07-22T05:33:28;5.60;;;3.90;;
39322;SDS011;25036;53.638;10.134;2023-07-22T05:34:28;6.07;;;4.10;;
39322;SDS011;25036;53.638;10.134;2023-07-22T05:35:29;5.73;;;3.87;;
39322;SDS011;25036;53.638;10.134;2023-07-22T05:36:29;5.50;;;3.90;;
39322;SDS011;25036;53.638;10.134;2023-07-22T05:37:29;5.97;;;3.75;;
39322;SDS011;25036;53.638;10.134;2023-07-22T05:38:29;4.97;;;4.07;;
39322;SDS011;25036;53.638;10.134;2023-07-22T05:39:31;6.68;;;4.22;;
39322;SDS011;25036;53.638;10.134;2023-07-22T05:40:31;7.93;;;4.00;;
39322;SDS011;25036;53.638;10.134;2023-07-22T05:41:32;8.35;;;4.03;;
39322;SDS011;25036;53.638;10.134;2023-07-22T05:42:33;8.18;;;4.30;;
39322;SDS011;25036;53.638;10.134;2023-07-22T05:43:33;6.67;;;3.97;;
39322;SDS011;25036;53.638;10.134;2023-07-22T05:44:33;5.97;;;4.18;;
39322;SDS011;25036;53.638;10.134;2023-07-22T05:45:33;7.10;;;3.87;;
39322;SDS011;25036;53.638;10.134;2023-07-22T05:46:33;4.43;;;3.33;;
39322;SDS011;25036;53.638;10.134;2023-07-22T05:47:33;6.47;;;4.27;;
39322;SDS011;25036;53.638;10.134;2023-07-22T05:48:33;5.73;;;4.07;;
39322;SDS011;25036;53.638;10.134;2023-07-22T05:49:34;6.13;;;3.53;;
39322;SDS011;25036;53.638;10.134;2023-07-22T05:50:34;7.03;;;4.18;;
39322;SDS011;25036;53.638;10.134;2023-07-22T05:51:34;5.77;;;3.80;;
39322;SDS011;25036;53.638;10.134;2023-07-22T05:52:34;6.85;;;3.70;;
39322;SDS011;25036;53.638;10.134;2023-07-22T05:53:34;5.35;;;3.72;;
39322;SDS011;25036;53.638;10.134;2023-07-22T05:54:34;8.30;;;4.03;;
39322;SDS011;25036;53.638;10.134;2023-07-22T05:55:35;6.47;;;4.00;;
39322;SDS011;25036;53.638;10.134;2023-07-22T05:56:35;7.60;;;3.87;;
39322;SDS011;25036;53.638;10.134;2023-07-22T05:57:35;6.37;;;3.60;;
39322;SDS011;25036;53.638;10.134;2023-07-22T05:58:35;5.90;;;3.77;;